sensor_id;sensor_type;location;lat;lon;timestamp;P1;P2;P0
77538;PMS7003;67783;51.656;16.106;2023-04-06T00:00:28;36;22;14
77538;PMS7003;67783;51.656;16.106;2023-04-06T00:03:34;22;21;11
77538;PMS7003;67783;51.656;16.106;2023-04-06T00:06:36;23;19;11
77538;PMS7003;67783;51.656;16.106;2023-04-06T00:09:38;17;16;10
77538;PMS7003;67783;51.656;16.106;2023-04-06T00:12:47;19;16;9
77538;PMS7003;67783;51.656;16.106;2023-04-06T00:15:49;18;16;10
77538;PMS7003;67783;51.656;16.106;2023-04-06T00:18:50;11;10;8
77538;PMS7003;67783;51.656;16.106;2023-04-06T00:21:52;16;15;10
77538;PMS7003;67783;51.656;16.106;2023-04-06T00:24:54;20;17;11
77538;PMS7003;67783;51.656;16.106;2023-04-06T00:27:55;12;10;7
77538;PMS7003;67783;51.656;16.106;2023-04-06T00:30:57;14;14;8
77538;PMS7003;67783;51.656;16.106;2023-04-06T00:34:02;9;8;7
77538;PMS7003;67783;51.656;16.106;2023-04-06T00:37:04;9;6;4
77538;PMS7003;67783;51.656;16.106;2023-04-06T00:40:06;10;9;6
77538;PMS7003;67783;51.656;16.106;2023-04-06T00:43:08;16;14;9
77538;PMS7003;67783;51.656;16.106;2023-04-06T00:46:10;13;12;6
77538;PMS7003;67783;51.656;16.106;2023-04-06T00:49:12;13;12;6
77538;PMS7003;67783;51.656;16.106;2023-04-06T00:52:14;8;4;2
77538;PMS7003;67783;51.656;16.106;2023-04-06T00:55:19;11;11;7
77538;PMS7003;67783;51.656;16.106;2023-04-06T00:58:20;6;6;5
77538;PMS7003;67783;51.656;16.106;2023-04-06T01:01:22;10;9;6
77538;PMS7003;67783;51.656;16.106;2023-04-06T01:04:25;18;9;4
77538;PMS7003;67783;51.656;16.106;2023-04-06T01:07:27;10;7;5
77538;PMS7003;67783;51.656;16.106;2023-04-06T01:10:40;13;12;9
77538;PMS7003;67783;51.656;16.106;2023-04-06T01:13:41;10;7;5
77538;PMS7003;67783;51.656;16.106;2023-04-06T01:16:43;9;9;6
77538;PMS7003;67783;51.656;16.106;2023-04-06T01:19:44;13;10;7
77538;PMS7003;67783;51.656;16.106;2023-04-06T01:22:46;11;9;7
77538;PMS7003;67783;51.656;16.106;2023-04-06T01:25:48;12;9;7
77538;PMS7003;67783;51.656;16.106;2023-04-06T01:28:49;15;13;10
77538;PMS7003;67783;51.656;16.106;2023-04-06T01:31:55;19;12;7
77538;PMS7003;67783;51.656;16.106;2023-04-06T01:34:56;10;10;7
77538;PMS7003;67783;51.656;16.106;2023-04-06T01:37:58;20;12;9
77538;PMS7003;67783;51.656;16.106;2023-04-06T01:41:00;15;13;9
77538;PMS7003;67783;51.656;16.106;2023-04-06T01:44:01;16;13;8
77538;PMS7003;67783;51.656;16.106;2023-04-06T01:47:03;16;16;9
77538;PMS7003;67783;51.656;16.106;2023-04-06T01:50:05;15;13;7
77538;PMS7003;67783;51.656;16.106;2023-04-06T01:53:10;14;12;6
77538;PMS7003;67783;51.656;16.106;2023-04-06T01:56:12;24;17;10
77538;PMS7003;67783;51.656;16.106;2023-04-06T01:59:14;11;11;7
77538;PMS7003;67783;51.656;16.106;2023-04-06T02:02:16;12;11;7
77538;PMS7003;67783;51.656;16.106;2023-04-06T02:05:19;13;13;8
77538;PMS7003;67783;51.656;16.106;2023-04-06T02:08:31;11;8;5
77538;PMS7003;67783;51.656;16.106;2023-04-06T02:11:33;12;11;6
77538;PMS7003;67783;51.656;16.106;2023-04-06T02:14:34;12;10;6
77538;PMS7003;67783;51.656;16.106;2023-04-06T02:17:35;16;13;5
77538;PMS7003;67783;51.656;16.106;2023-04-06T02:20:37;12;11;7
77538;PMS7003;67783;51.656;16.106;2023-04-06T02:23:38;10;5;4
77538;PMS7003;67783;51.656;16.106;2023-04-06T02:26:40;11;10;7
77538;PMS7003;67783;51.656;16.106;2023-04-06T02:29:46;13;12;7
77538;PMS7003;67783;51.656;16.106;2023-04-06T02:32:48;16;10;6
77538;PMS7003;67783;51.656;16.106;2023-04-06T02:35:49;11;11;7
77538;PMS7003;67783;51.656;16.106;2023-04-06T02:38:51;17;11;6
77538;PMS7003;67783;51.656;16.106;2023-04-06T02:41:52;11;9;6
77538;PMS7003;67783;51.656;16.106;2023-04-06T02:44:54;13;9;6
77538;PMS7003;67783;51.656;16.106;2023-04-06T02:47:55;13;13;7
77538;PMS7003;67783;51.656;16.106;2023-04-06T02:51:01;13;9;6
77538;PMS7003;67783;51.656;16.106;2023-04-06T02:54:03;11;5;0
77538;PMS7003;67783;51.656;16.106;2023-04-06T02:57:04;18;12;7
77538;PMS7003;67783;51.656;16.106;2023-04-06T03:00:07;22;14;8
77538;PMS7003;67783;51.656;16.106;2023-04-06T03:03:10;10;7;5
77538;PMS7003;67783;51.656;16.106;2023-04-06T03:06:22;12;8;5
77538;PMS7003;67783;51.656;16.106;2023-04-06T03:09:23;14;9;5
77538;PMS7003;67783;51.656;16.106;2023-04-06T03:12:25;9;8;6
77538;PMS7003;67783;51.656;16.106;2023-04-06T03:15:26;10;5;2
77538;PMS7003;67783;51.656;16.106;2023-04-06T03:18:28;10;8;6
77538;PMS7003;67783;51.656;16.106;2023-04-06T03:21:29;15;11;5
77538;PMS7003;67783;51.656;16.106;2023-04-06T03:24:31;13;11;6
77538;PMS7003;67783;51.656;16.106;2023-04-06T03:27:37;15;11;7
77538;PMS7003;67783;51.656;16.106;2023-04-06T03:30:39;12;9;6
77538;PMS7003;67783;51.656;16.106;2023-04-06T03:33:40;14;12;6
77538;PMS7003;67783;51.656;16.106;2023-04-06T03:36:42;13;11;8
77538;PMS7003;67783;51.656;16.106;2023-04-06T03:39:43;9;9;6
77538;PMS7003;67783;51.656;16.106;2023-04-06T03:42:45;11;9;5
77538;PMS7003;67783;51.656;16.106;2023-04-06T03:45:47;12;10;7
77538;PMS7003;67783;51.656;16.106;2023-04-06T03:48:52;18;9;6
77538;PMS7003;67783;51.656;16.106;2023-04-06T03:51:55;11;11;7
77538;PMS7003;67783;51.656;16.106;2023-04-06T03:54:57;15;13;9
77538;PMS7003;67783;51.656;16.106;2023-04-06T03:57:59;17;15;8
77538;PMS7003;67783;51.656;16.106;2023-04-06T04:01:01;18;14;6
77538;PMS7003;67783;51.656;16.106;2023-04-06T04:04:13;16;14;8
77538;PMS7003;67783;51.656;16.106;2023-04-06T04:07:15;17;12;9
77538;PMS7003;67783;51.656;16.106;2023-04-06T04:10:17;13;11;8
77538;PMS7003;67783;51.656;16.106;2023-04-06T04:13:18;17;13;8
77538;PMS7003;67783;51.656;16.106;2023-04-06T04:16:21;12;12;8
77538;PMS7003;67783;51.656;16.106;2023-04-06T04:19:22;17;14;9
77538;PMS7003;67783;51.656;16.106;2023-04-06T04:22:24;13;11;7
77538;PMS7003;67783;51.656;16.106;2023-04-06T04:25:29;15;12;7
77538;PMS7003;67783;51.656;16.106;2023-04-06T04:28:30;13;11;6
77538;PMS7003;67783;51.656;16.106;2023-04-06T04:31:32;11;8;5
77538;PMS7003;67783;51.656;16.106;2023-04-06T04:34:34;16;10;8
77538;PMS7003;67783;51.656;16.106;2023-04-06T04:37:36;18;13;9
77538;PMS7003;67783;51.656;16.106;2023-04-06T04:40:37;15;9;5
77538;PMS7003;67783;51.656;16.106;2023-04-06T04:43:39;12;9;5
77538;PMS7003;67783;51.656;16.106;2023-04-06T04:46:44;20;15;10
77538;PMS7003;67783;51.656;16.106;2023-04-06T04:49:45;13;11;7
77538;PMS7003;67783;51.656;16.106;2023-04-06T04:52:47;13;13;9
77538;PMS7003;67783;51.656;16.106;2023-04-06T04:55:49;14;14;8
77538;PMS7003;67783;51.656;16.106;2023-04-06T04:58:50;17;15;10
77538;PMS7003;67783;51.656;16.106;2023-04-06T05:02:44;15;14;9
77538;PMS7003;67783;51.656;16.106;2023-04-06T05:05:46;19;18;10
77538;PMS7003;67783;51.656;16.106;2023-04-06T05:08:47;15;15;9
77538;PMS7003;67783;51.656;16.106;2023-04-06T05:11:49;19;17;10
77538;PMS7003;67783;51.656;16.106;2023-04-06T05:14:50;15;12;7
77538;PMS7003;67783;51.656;16.106;2023-04-06T05:17:52;15;15;10
77538;PMS7003;67783;51.656;16.106;2023-04-06T05:20:59;12;10;4
77538;PMS7003;67783;51.656;16.106;2023-04-06T05:24:01;21;16;10
77538;PMS7003;67783;51.656;16.106;2023-04-06T05:27:03;5;2;0
77538;PMS7003;67783;51.656;16.106;2023-04-06T05:30:06;20;16;9
77538;PMS7003;67783;51.656;16.106;2023-04-06T05:33:09;21;14;10
77538;PMS7003;67783;51.656;16.106;2023-04-06T05:36:20;17;16;11
77538;PMS7003;67783;51.656;16.106;2023-04-06T05:39:22;29;23;13
77538;PMS7003;67783;51.656;16.106;2023-04-06T05:42:23;28;24;13
77538;PMS7003;67783;51.656;16.106;2023-04-06T05:45:26;19;18;12
77538;PMS7003;67783;51.656;16.106;2023-04-06T05:48:27;27;22;12
77538;PMS7003;67783;51.656;16.106;2023-04-06T05:51:29;19;16;11
77538;PMS7003;67783;51.656;16.106;2023-04-06T05:54:30;26;19;12
77538;PMS7003;67783;51.656;16.106;2023-04-06T05:57:35;20;17;11
77538;PMS7003;67783;51.656;16.106;2023-04-06T06:00:37;20;18;8
77538;PMS7003;67783;51.656;16.106;2023-04-06T06:03:39;20;16;11
77538;PMS7003;67783;51.656;16.106;2023-04-06T06:06:40;9;5;0
77538;PMS7003;67783;51.656;16.106;2023-04-06T06:09:42;18;16;10
77538;PMS7003;67783;51.656;16.106;2023-04-06T06:12:43;20;16;11
77538;PMS7003;67783;51.656;16.106;2023-04-06T06:15:45;18;13;8
77538;PMS7003;67783;51.656;16.106;2023-04-06T06:18:50;15;14;8
77538;PMS7003;67783;51.656;16.106;2023-04-06T06:21:52;11;8;5
77538;PMS7003;67783;51.656;16.106;2023-04-06T06:24:54;20;16;9
77538;PMS7003;67783;51.656;16.106;2023-04-06T06:27:55;31;22;13
77538;PMS7003;67783;51.656;16.106;2023-04-06T06:30:57;25;20;11
77538;PMS7003;67783;51.656;16.106;2023-04-06T06:33:59;20;18;11
77538;PMS7003;67783;51.656;16.106;2023-04-06T06:37:01;19;17;11
77538;PMS7003;67783;51.656;16.106;2023-04-06T06:40:06;21;18;11
77538;PMS7003;67783;51.656;16.106;2023-04-06T06:43:09;17;17;10
77538;PMS7003;67783;51.656;16.106;2023-04-06T06:46:11;14;12;5
77538;PMS7003;67783;51.656;16.106;2023-04-06T06:49:12;14;14;8
77538;PMS7003;67783;51.656;16.106;2023-04-06T06:52:15;16;10;6
77538;PMS7003;67783;51.656;16.106;2023-04-06T06:55:26;17;12;7
77538;PMS7003;67783;51.656;16.106;2023-04-06T06:58:28;18;14;8
77538;PMS7003;67783;51.656;16.106;2023-04-06T07:01:30;20;18;6
77538;PMS7003;67783;51.656;16.106;2023-04-06T07:04:33;23;19;11
77538;PMS7003;67783;51.656;16.106;2023-04-06T07:07:35;26;15;9
77538;PMS7003;67783;51.656;16.106;2023-04-06T07:10:47;18;16;10
77538;PMS7003;67783;51.656;16.106;2023-04-06T07:13:52;17;14;11
77538;PMS7003;67783;51.656;16.106;2023-04-06T07:16:54;21;15;9
77538;PMS7003;67783;51.656;16.106;2023-04-06T07:19:56;15;15;8
77538;PMS7003;67783;51.656;16.106;2023-04-06T07:22:57;11;11;8
77538;PMS7003;67783;51.656;16.106;2023-04-06T07:26:08;27;18;10
77538;PMS7003;67783;51.656;16.106;2023-04-06T07:29:10;10;7;3
77538;PMS7003;67783;51.656;16.106;2023-04-06T07:32:13;14;12;8
77538;PMS7003;67783;51.656;16.106;2023-04-06T07:35:15;13;12;9
77538;PMS7003;67783;51.656;16.106;2023-04-06T07:38:17;19;16;9
77538;PMS7003;67783;51.656;16.106;2023-04-06T07:41:29;16;13;9
77538;PMS7003;67783;51.656;16.106;2023-04-06T07:44:31;14;7;4
77538;PMS7003;67783;51.656;16.106;2023-04-06T07:47:33;18;13;8
77538;PMS7003;67783;51.656;16.106;2023-04-06T07:50:35;9;7;5
77538;PMS7003;67783;51.656;16.106;2023-04-06T07:53:36;17;12;7
77538;PMS7003;67783;51.656;16.106;2023-04-06T07:56:38;20;16;10
77538;PMS7003;67783;51.656;16.106;2023-04-06T07:59:39;16;14;8
77538;PMS7003;67783;51.656;16.106;2023-04-06T08:02:44;13;11;7
77538;PMS7003;67783;51.656;16.106;2023-04-06T08:05:46;14;10;6
77538;PMS7003;67783;51.656;16.106;2023-04-06T08:08:48;15;13;10
77538;PMS7003;67783;51.656;16.106;2023-04-06T08:11:49;13;12;8
77538;PMS7003;67783;51.656;16.106;2023-04-06T08:14:51;14;13;8
77538;PMS7003;67783;51.656;16.106;2023-04-06T08:17:52;13;11;7
77538;PMS7003;67783;51.656;16.106;2023-04-06T08:20:54;10;10;6
77538;PMS7003;67783;51.656;16.106;2023-04-06T08:24:00;12;12;8
77538;PMS7003;67783;51.656;16.106;2023-04-06T08:27:01;11;10;7
77538;PMS7003;67783;51.656;16.106;2023-04-06T08:30:04;11;8;4
77538;PMS7003;67783;51.656;16.106;2023-04-06T08:33:06;13;9;4
77538;PMS7003;67783;51.656;16.106;2023-04-06T08:36:11;12;11;7
77538;PMS7003;67783;51.656;16.106;2023-04-06T08:39:20;8;8;5
77538;PMS7003;67783;51.656;16.106;2023-04-06T08:42:28;7;7;6
77538;PMS7003;67783;51.656;16.106;2023-04-06T08:45:34;7;6;5
77538;PMS7003;67783;51.656;16.106;2023-04-06T08:48:47;6;6;3
77538;PMS7003;67783;51.656;16.106;2023-04-06T08:51:51;5;5;3
77538;PMS7003;67783;51.656;16.106;2023-04-06T08:54:54;4;4;4
77538;PMS7003;67783;51.656;16.106;2023-04-06T08:57:55;7;5;4
77538;PMS7003;67783;51.656;16.106;2023-04-06T09:00:58;7;5;5
77538;PMS7003;67783;51.656;16.106;2023-04-06T09:04:07;10;7;5
77538;PMS7003;67783;51.656;16.106;2023-04-06T09:07:11;6;5;3
77538;PMS7003;67783;51.656;16.106;2023-04-06T09:10:12;6;4;2
77538;PMS7003;67783;51.656;16.106;2023-04-06T09:13:17;7;3;2
77538;PMS7003;67783;51.656;16.106;2023-04-06T09:16:19;5;4;2
77538;PMS7003;67783;51.656;16.106;2023-04-06T09:19:28;7;6;4
77538;PMS7003;67783;51.656;16.106;2023-04-06T09:25:38;7;7;4
77538;PMS7003;67783;51.656;16.106;2023-04-06T09:28:58;6;5;3
77538;PMS7003;67783;51.656;16.106;2023-04-06T09:35:06;3;3;3
77538;PMS7003;67783;51.656;16.106;2023-04-06T09:38:12;5;4;2
77538;PMS7003;67783;51.656;16.106;2023-04-06T09:41:20;8;4;3
77538;PMS7003;67783;51.656;16.106;2023-04-06T09:44:26;4;4;3
77538;PMS7003;67783;51.656;16.106;2023-04-06T09:47:28;6;3;3
77538;PMS7003;67783;51.656;16.106;2023-04-06T09:50:33;7;5;3
77538;PMS7003;67783;51.656;16.106;2023-04-06T09:53:35;3;3;2
77538;PMS7003;67783;51.656;16.106;2023-04-06T09:56:45;2;2;2
77538;PMS7003;67783;51.656;16.106;2023-04-06T10:06:22;4;3;2
77538;PMS7003;67783;51.656;16.106;2023-04-06T10:09:28;3;3;2
77538;PMS7003;67783;51.656;16.106;2023-04-06T10:12:37;2;2;2
77538;PMS7003;67783;51.656;16.106;2023-04-06T10:15:40;2;1;1
77538;PMS7003;67783;51.656;16.106;2023-04-06T10:18:54;2;2;2
77538;PMS7003;67783;51.656;16.106;2023-04-06T10:22:00;3;3;1
77538;PMS7003;67783;51.656;16.106;2023-04-06T10:25:04;4;3;1
77538;PMS7003;67783;51.656;16.106;2023-04-06T10:28:07;3;3;2
77538;PMS7003;67783;51.656;16.106;2023-04-06T10:31:09;7;5;4
77538;PMS7003;67783;51.656;16.106;2023-04-06T10:34:14;2;2;2
77538;PMS7003;67783;51.656;16.106;2023-04-06T10:37:16;11;3;2
77538;PMS7003;67783;51.656;16.106;2023-04-06T10:40:24;3;3;2
77538;PMS7003;67783;51.656;16.106;2023-04-06T10:43:26;5;4;3
77538;PMS7003;67783;51.656;16.106;2023-04-06T10:46:33;3;3;3
77538;PMS7003;67783;51.656;16.106;2023-04-06T10:49:37;4;3;2
77538;PMS7003;67783;51.656;16.106;2023-04-06T10:52:39;3;3;2
77538;PMS7003;67783;51.656;16.106;2023-04-06T10:55:40;6;3;3
77538;PMS7003;67783;51.656;16.106;2023-04-06T10:58:47;4;4;3
77538;PMS7003;67783;51.656;16.106;2023-04-06T11:01:50;3;3;3
77538;PMS7003;67783;51.656;16.106;2023-04-06T11:04:58;5;4;3
77538;PMS7003;67783;51.656;16.106;2023-04-06T11:08:01;3;3;2
77538;PMS7003;67783;51.656;16.106;2023-04-06T11:11:06;6;5;3
77538;PMS7003;67783;51.656;16.106;2023-04-06T11:14:09;4;3;3
77538;PMS7003;67783;51.656;16.106;2023-04-06T11:17:11;6;5;4
77538;PMS7003;67783;51.656;16.106;2023-04-06T11:20:19;5;5;4
77538;PMS7003;67783;51.656;16.106;2023-04-06T11:23:24;4;4;3
77538;PMS7003;67783;51.656;16.106;2023-04-06T11:26:26;6;4;3
77538;PMS7003;67783;51.656;16.106;2023-04-06T11:29:29;4;4;3
77538;PMS7003;67783;51.656;16.106;2023-04-06T11:32:39;5;5;3
77538;PMS7003;67783;51.656;16.106;2023-04-06T11:35:45;6;5;4
77538;PMS7003;67783;51.656;16.106;2023-04-06T11:38:47;4;3;3
77538;PMS7003;67783;51.656;16.106;2023-04-06T11:41:48;6;4;3
77538;PMS7003;67783;51.656;16.106;2023-04-06T11:44:53;4;4;3
77538;PMS7003;67783;51.656;16.106;2023-04-06T11:47:59;4;4;3
77538;PMS7003;67783;51.656;16.106;2023-04-06T11:51:01;5;4;2
77538;PMS7003;67783;51.656;16.106;2023-04-06T11:54:07;4;4;3
77538;PMS7003;67783;51.656;16.106;2023-04-06T11:57:08;6;5;3
77538;PMS7003;67783;51.656;16.106;2023-04-06T12:00:10;6;6;3
77538;PMS7003;67783;51.656;16.106;2023-04-06T12:03:13;3;3;2
77538;PMS7003;67783;51.656;16.106;2023-04-06T12:06:21;2;2;1
77538;PMS7003;67783;51.656;16.106;2023-04-06T12:09:22;5;5;4
77538;PMS7003;67783;51.656;16.106;2023-04-06T12:12:24;2;2;1
77538;PMS7003;67783;51.656;16.106;2023-04-06T12:15:26;3;3;2
77538;PMS7003;67783;51.656;16.106;2023-04-06T12:18:28;6;6;4
77538;PMS7003;67783;51.656;16.106;2023-04-06T12:21:41;4;4;3
77538;PMS7003;67783;51.656;16.106;2023-04-06T12:24:43;5;5;3
77538;PMS7003;67783;51.656;16.106;2023-04-06T12:27:44;2;2;2
77538;PMS7003;67783;51.656;16.106;2023-04-06T12:30:46;4;4;3
77538;PMS7003;67783;51.656;16.106;2023-04-06T12:33:48;2;2;1
77538;PMS7003;67783;51.656;16.106;2023-04-06T12:36:51;4;4;3
77538;PMS7003;67783;51.656;16.106;2023-04-06T12:39:52;3;3;2
77538;PMS7003;67783;51.656;16.106;2023-04-06T12:42:57;3;3;2
77538;PMS7003;67783;51.656;16.106;2023-04-06T12:45:59;3;2;2
77538;PMS7003;67783;51.656;16.106;2023-04-06T12:49:00;5;4;3
77538;PMS7003;67783;51.656;16.106;2023-04-06T12:52:03;3;3;2
77538;PMS7003;67783;51.656;16.106;2023-04-06T12:55:05;2;2;1
77538;PMS7003;67783;51.656;16.106;2023-04-06T12:58:18;4;3;2
77538;PMS7003;67783;51.656;16.106;2023-04-06T13:01:19;3;3;2
77538;PMS7003;67783;51.656;16.106;2023-04-06T13:04:22;7;4;2
77538;PMS7003;67783;51.656;16.106;2023-04-06T13:07:24;2;2;2
77538;PMS7003;67783;51.656;16.106;2023-04-06T13:10:26;3;3;2
77538;PMS7003;67783;51.656;16.106;2023-04-06T13:13:38;3;3;2
77538;PMS7003;67783;51.656;16.106;2023-04-06T13:16:40;2;2;2
77538;PMS7003;67783;51.656;16.106;2023-04-06T13:19:43;2;2;1
77538;PMS7003;67783;51.656;16.106;2023-04-06T13:22:44;4;4;3
77538;PMS7003;67783;51.656;16.106;2023-04-06T13:25:46;5;3;3
77538;PMS7003;67783;51.656;16.106;2023-04-06T13:28:48;3;2;2
77538;PMS7003;67783;51.656;16.106;2023-04-06T13:31:49;3;2;2
77538;PMS7003;67783;51.656;16.106;2023-04-06T13:34:54;4;3;2
77538;PMS7003;67783;51.656;16.106;2023-04-06T13:37:56;3;3;3
77538;PMS7003;67783;51.656;16.106;2023-04-06T13:40:58;3;3;2
77538;PMS7003;67783;51.656;16.106;2023-04-06T13:44:00;6;4;2
77538;PMS7003;67783;51.656;16.106;2023-04-06T13:47:02;4;4;3
77538;PMS7003;67783;51.656;16.106;2023-04-06T13:50:04;5;4;3
77538;PMS7003;67783;51.656;16.106;2023-04-06T13:53:07;3;2;1
77538;PMS7003;67783;51.656;16.106;2023-04-06T13:56:12;4;2;1
77538;PMS7003;67783;51.656;16.106;2023-04-06T13:59:13;2;2;1
77538;PMS7003;67783;51.656;16.106;2023-04-06T14:02:15;2;2;1
77538;PMS7003;67783;51.656;16.106;2023-04-06T14:05:18;2;2;1
77538;PMS7003;67783;51.656;16.106;2023-04-06T14:08:20;5;4;3
77538;PMS7003;67783;51.656;16.106;2023-04-06T14:11:32;4;4;3
77538;PMS7003;67783;51.656;16.106;2023-04-06T14:14:34;3;3;3
77538;PMS7003;67783;51.656;16.106;2023-04-06T14:17:36;9;3;3
77538;PMS7003;67783;51.656;16.106;2023-04-06T14:20:38;2;2;1
77538;PMS7003;67783;51.656;16.106;2023-04-06T14:23:39;6;5;4
77538;PMS7003;67783;51.656;16.106;2023-04-06T14:26:41;3;3;2
77538;PMS7003;67783;51.656;16.106;2023-04-06T14:29:43;5;5;3
77538;PMS7003;67783;51.656;16.106;2023-04-06T14:32:48;3;3;3
77538;PMS7003;67783;51.656;16.106;2023-04-06T14:35:50;4;3;3
77538;PMS7003;67783;51.656;16.106;2023-04-06T14:38:51;4;4;3
77538;PMS7003;67783;51.656;16.106;2023-04-06T14:41:53;3;3;3
77538;PMS7003;67783;51.656;16.106;2023-04-06T14:44:55;5;5;4
77538;PMS7003;67783;51.656;16.106;2023-04-06T14:47:56;6;5;3
77538;PMS7003;67783;51.656;16.106;2023-04-06T14:50:59;4;3;2
77538;PMS7003;67783;51.656;16.106;2023-04-06T14:54:04;6;6;5
77538;PMS7003;67783;51.656;16.106;2023-04-06T14:57:05;5;5;4
77538;PMS7003;67783;51.656;16.106;2023-04-06T15:00:07;4;4;3
77538;PMS7003;67783;51.656;16.106;2023-04-06T15:03:10;7;6;4
77538;PMS7003;67783;51.656;16.106;2023-04-06T15:06:12;9;7;4
77538;PMS7003;67783;51.656;16.106;2023-04-06T15:09:24;3;3;2
77538;PMS7003;67783;51.656;16.106;2023-04-06T15:12:26;4;2;2
77538;PMS7003;67783;51.656;16.106;2023-04-06T15:15:30;7;3;3
77538;PMS7003;67783;51.656;16.106;2023-04-06T15:18:31;5;5;4
77538;PMS7003;67783;51.656;16.106;2023-04-06T15:21:34;4;4;4
77538;PMS7003;67783;51.656;16.106;2023-04-06T15:24:45;4;4;3
77538;PMS7003;67783;51.656;16.106;2023-04-06T15:27:46;6;6;4
77538;PMS7003;67783;51.656;16.106;2023-04-06T15:30:48;4;4;2
77538;PMS7003;67783;51.656;16.106;2023-04-06T15:33:49;5;5;4
77538;PMS7003;67783;51.656;16.106;2023-04-06T15:36:51;6;6;5
77538;PMS7003;67783;51.656;16.106;2023-04-06T15:39:53;4;4;3
77538;PMS7003;67783;51.656;16.106;2023-04-06T15:42:55;6;1;0
77538;PMS7003;67783;51.656;16.106;2023-04-06T15:46:00;5;5;4
77538;PMS7003;67783;51.656;16.106;2023-04-06T15:49:02;9;6;4
77538;PMS7003;67783;51.656;16.106;2023-04-06T15:52:03;7;6;4
77538;PMS7003;67783;51.656;16.106;2023-04-06T15:55:06;7;4;3
77538;PMS7003;67783;51.656;16.106;2023-04-06T15:58:09;9;7;5
77538;PMS7003;67783;51.656;16.106;2023-04-06T16:01:20;5;5;4
77538;PMS7003;67783;51.656;16.106;2023-04-06T16:04:22;9;8;5
77538;PMS7003;67783;51.656;16.106;2023-04-06T16:07:23;6;5;4
77538;PMS7003;67783;51.656;16.106;2023-04-06T16:10:25;7;6;4
77538;PMS7003;67783;51.656;16.106;2023-04-06T16:13:27;6;5;4
77538;PMS7003;67783;51.656;16.106;2023-04-06T16:16:29;8;6;4
77538;PMS7003;67783;51.656;16.106;2023-04-06T16:19:30;7;7;4
77538;PMS7003;67783;51.656;16.106;2023-04-06T16:22:35;5;4;3
77538;PMS7003;67783;51.656;16.106;2023-04-06T16:25:37;7;5;5
77538;PMS7003;67783;51.656;16.106;2023-04-06T16:28:39;5;5;4
77538;PMS7003;67783;51.656;16.106;2023-04-06T16:31:42;5;4;3
77538;PMS7003;67783;51.656;16.106;2023-04-06T16:34:49;5;4;3
77538;PMS7003;67783;51.656;16.106;2023-04-06T16:37:56;4;3;3
77538;PMS7003;67783;51.656;16.106;2023-04-06T16:40:58;6;6;3
77538;PMS7003;67783;51.656;16.106;2023-04-06T16:44:04;3;3;2
77538;PMS7003;67783;51.656;16.106;2023-04-06T16:47:06;4;4;2
77538;PMS7003;67783;51.656;16.106;2023-04-06T16:50:09;2;1;1
77538;PMS7003;67783;51.656;16.106;2023-04-06T16:53:17;3;3;2
77538;PMS7003;67783;51.656;16.106;2023-04-06T16:56:18;4;3;3
77538;PMS7003;67783;51.656;16.106;2023-04-06T16:59:21;2;2;2
77538;PMS7003;67783;51.656;16.106;2023-04-06T17:02:23;3;3;3
77538;PMS7003;67783;51.656;16.106;2023-04-06T17:05:25;7;5;4
77538;PMS7003;67783;51.656;16.106;2023-04-06T17:08:37;5;4;3
77538;PMS7003;67783;51.656;16.106;2023-04-06T17:11:39;5;2;2
77538;PMS7003;67783;51.656;16.106;2023-04-06T17:14:41;5;2;2
77538;PMS7003;67783;51.656;16.106;2023-04-06T17:17:43;4;4;3
77538;PMS7003;67783;51.656;16.106;2023-04-06T17:20:45;3;3;2
77538;PMS7003;67783;51.656;16.106;2023-04-06T17:23:58;3;3;2
77538;PMS7003;67783;51.656;16.106;2023-04-06T17:27:00;3;2;2
77538;PMS7003;67783;51.656;16.106;2023-04-06T17:30:03;5;5;3
77538;PMS7003;67783;51.656;16.106;2023-04-06T17:33:06;4;2;2
77538;PMS7003;67783;51.656;16.106;2023-04-06T17:36:09;3;3;3
77538;PMS7003;67783;51.656;16.106;2023-04-06T17:39:19;3;2;1
77538;PMS7003;67783;51.656;16.106;2023-04-06T17:42:21;3;2;2
77538;PMS7003;67783;51.656;16.106;2023-04-06T17:45:23;5;2;2
77538;PMS7003;67783;51.656;16.106;2023-04-06T17:48:24;4;2;2
77538;PMS7003;67783;51.656;16.106;2023-04-06T17:51:29;8;4;3
77538;PMS7003;67783;51.656;16.106;2023-04-06T17:54:39;3;3;2
77538;PMS7003;67783;51.656;16.106;2023-04-06T17:57:41;4;4;3
77538;PMS7003;67783;51.656;16.106;2023-04-06T18:00:44;3;3;3
77538;PMS7003;67783;51.656;16.106;2023-04-06T18:03:45;5;5;3
77538;PMS7003;67783;51.656;16.106;2023-04-06T18:06:47;4;3;2
77538;PMS7003;67783;51.656;16.106;2023-04-06T18:09:49;6;6;4
77538;PMS7003;67783;51.656;16.106;2023-04-06T18:12:51;9;6;4
77538;PMS7003;67783;51.656;16.106;2023-04-06T18:15:55;6;6;5
77538;PMS7003;67783;51.656;16.106;2023-04-06T18:19:00;7;7;4
77538;PMS7003;67783;51.656;16.106;2023-04-06T18:22:04;6;5;3
77538;PMS7003;67783;51.656;16.106;2023-04-06T18:25:06;7;6;5
77538;PMS7003;67783;51.656;16.106;2023-04-06T18:28:08;4;4;3
77538;PMS7003;67783;51.656;16.106;2023-04-06T18:31:16;4;4;3
77538;PMS7003;67783;51.656;16.106;2023-04-06T18:34:21;6;5;3
77538;PMS7003;67783;51.656;16.106;2023-04-06T18:37:23;5;3;2
77538;PMS7003;67783;51.656;16.106;2023-04-06T18:43:37;10;10;6
77538;PMS7003;67783;51.656;16.106;2023-04-06T18:46:43;9;7;6
77538;PMS7003;67783;51.656;16.106;2023-04-06T18:49:45;16;10;7
77538;PMS7003;67783;51.656;16.106;2023-04-06T18:52:50;7;7;4
77538;PMS7003;67783;51.656;16.106;2023-04-06T18:55:52;13;10;5
77538;PMS7003;67783;51.656;16.106;2023-04-06T18:58:56;11;10;7
77538;PMS7003;67783;51.656;16.106;2023-04-06T19:02:03;15;14;7
77538;PMS7003;67783;51.656;16.106;2023-04-06T19:05:05;11;11;7
77538;PMS7003;67783;51.656;16.106;2023-04-06T19:08:08;12;11;7
77538;PMS7003;67783;51.656;16.106;2023-04-06T19:11:10;12;10;7
77538;PMS7003;67783;51.656;16.106;2023-04-06T19:14:12;12;12;8
77538;PMS7003;67783;51.656;16.106;2023-04-06T19:17:24;15;12;7
77538;PMS7003;67783;51.656;16.106;2023-04-06T19:20:26;13;11;8
77538;PMS7003;67783;51.656;16.106;2023-04-06T19:23:28;16;14;8
77538;PMS7003;67783;51.656;16.106;2023-04-06T19:26:30;38;29;15
77538;PMS7003;67783;51.656;16.106;2023-04-06T19:29:34;53;39;23
77538;PMS7003;67783;51.656;16.106;2023-04-06T19:32:45;37;30;18
77538;PMS7003;67783;51.656;16.106;2023-04-06T19:35:46;42;26;16
77538;PMS7003;67783;51.656;16.106;2023-04-06T19:38:48;44;32;18
77538;PMS7003;67783;51.656;16.106;2023-04-06T19:41:50;30;24;16
77538;PMS7003;67783;51.656;16.106;2023-04-06T19:44:52;44;35;20
77538;PMS7003;67783;51.656;16.106;2023-04-06T19:47:53;50;41;26
77538;PMS7003;67783;51.656;16.106;2023-04-06T19:50:55;81;52;28
77538;PMS7003;67783;51.656;16.106;2023-04-06T19:54:00;71;58;31
77538;PMS7003;67783;51.656;16.106;2023-04-06T19:57:03;67;49;28
77538;PMS7003;67783;51.656;16.106;2023-04-06T20:00:05;70;54;29
77538;PMS7003;67783;51.656;16.106;2023-04-06T20:03:08;75;59;31
77538;PMS7003;67783;51.656;16.106;2023-04-06T20:06:11;79;61;31
77538;PMS7003;67783;51.656;16.106;2023-04-06T20:09:21;82;60;30
77538;PMS7003;67783;51.656;16.106;2023-04-06T20:12:24;72;56;29